Time;durP1;ratioP1;P1;durP2;ratioP2;P2;SDS_P1;SDS_P2;PMS_P1;PMS_P2;Temp;Humidity;BMP_temperature;BMP_pressure;BME280_temperature;BME280_humidity;BME280_pressure;Samples;Min_cycle;Max_cycle;Signal;HPM_P1;HPM_P2
2024/02/23 00:01:05;;;;;;;1.55;0.50;;;12.60;88.80;;;;;;5072390;28;20032;-79
2024/02/23 00:03:31;;;;;;;1.73;0.57;;;12.60;88.30;;;;;;5054501;28;20396;-79
2024/02/23 00:05:58;;;;;;;1.95;0.50;;;12.60;89.40;;;;;;5054707;28;20028;-79
2024/02/23 00:08:24;;;;;;;1.20;0.50;;;12.60;88.90;;;;;;5072541;28;20047;-79
2024/02/23 00:10:50;;;;;;;1.23;0.50;;;12.60;89.30;;;;;;5054448;28;20028;-79
2024/02/23 00:13:15;;;;;;;1.15;0.45;;;12.60;89.50;;;;;;5054193;28;20035;-79
2024/02/23 00:15:41;;;;;;;1.70;0.65;;;12.60;89.70;;;;;;5053814;28;20028;-80
2024/02/23 00:18:06;;;;;;;0.70;0.40;;;12.60;88.90;;;;;;5072335;28;20024;-80
2024/02/23 00:20:32;;;;;;;2.05;0.60;;;12.70;89.90;;;;;;5072294;28;20103;-79
2024/02/23 00:22:57;;;;;;;1.35;0.55;;;12.60;89.80;;;;;;5054184;28;20028;-79
2024/02/23 00:25:24;;;;;;;1.65;0.55;;;12.60;90.00;;;;;;5054527;28;20089;-80
2024/02/23 00:27:49;;;;;;;1.30;0.50;;;12.60;90.30;;;;;;5054185;28;20024;-79
2024/02/23 00:30:15;;;;;;;0.50;0.50;;;12.70;90.30;;;;;;5054200;28;20469;-79
2024/02/23 00:32:40;;;;;;;3.80;0.95;;;12.70;90.20;;;;;;5054098;28;20028;-79
2024/02/23 00:35:06;;;;;;;1.23;0.50;;;12.60;90.20;;;;;;5072189;28;20032;-79
2024/02/23 00:37:35;;;;;;;1.27;0.40;;;12.60;90.10;;;;;;5054280;28;20110;-79
2024/02/23 00:40:04;;;;;;;1.52;0.55;;;12.60;90.00;;;;;;5072024;28;20024;-79
2024/02/23 00:42:30;;;;;;;1.80;0.57;;;12.60;90.30;;;;;;5071674;28;20098;-79
2024/02/23 00:44:56;;;;;;;1.15;0.45;;;12.60;90.40;;;;;;5054137;28;20067;-79
2024/02/23 00:47:21;;;;;;;0.60;0.40;;;12.60;90.40;;;;;;5054200;28;20024;-79
2024/02/23 00:49:47;;;;;;;1.98;0.40;;;12.60;90.50;;;;;;5072259;28;20533;-79
2024/02/23 00:52:12;;;;;;;0.98;0.40;;;12.60;90.60;;;;;;5053919;28;20138;-79
2024/02/23 00:54:38;;;;;;;1.52;0.50;;;12.60;90.60;;;;;;5054073;28;20070;-79
2024/02/23 00:57:03;;;;;;;1.70;0.50;;;12.60;90.60;;;;;;5053790;28;20032;-79
2024/02/23 00:59:29;;;;;;;1.60;0.52;;;12.60;90.70;;;;;;5054172;28;20035;-80
2024/02/23 01:01:55;;;;;;;0.80;0.38;;;12.60;90.60;;;;;;5053776;28;20091;-79
2024/02/23 01:04:21;;;;;;;0.80;0.30;;;12.60;90.60;;;;;;5053923;28;20025;-79
2024/02/23 01:06:46;;;;;;;1.20;0.43;;;12.60;90.70;;;;;;5072228;28;20043;-80
2024/02/23 01:09:12;;;;;;;1.17;0.50;;;12.60;90.70;;;;;;5072057;28;20473;-78
2024/02/23 01:11:37;;;;;;;1.10;0.47;;;12.60;90.70;;;;;;5053915;28;20025;-78
2024/02/23 01:14:03;;;;;;;2.08;0.70;;;12.60;90.70;;;;;;5053814;28;20024;-79
2024/02/23 01:16:28;;;;;;;1.60;0.50;;;12.60;90.70;;;;;;5071816;28;20021;-79
2024/02/23 01:18:53;;;;;;;1.70;0.40;;;12.60;90.70;;;;;;5053955;28;20035;-79
2024/02/23 01:21:19;;;;;;;1.00;0.45;;;12.60;90.70;;;;;;5071676;28;20028;-79
2024/02/23 01:23:44;;;;;;;1.15;0.30;;;12.60;90.70;;;;;;5071208;28;20025;-79
2024/02/23 01:26:10;;;;;;;0.85;0.43;;;12.60;90.70;;;;;;5053159;28;20052;-79
2024/02/23 01:28:35;;;;;;;0.93;0.30;;;12.60;90.80;;;;;;5056570;28;20017;-79
2024/02/23 01:31:01;;;;;;;0.40;0.30;;;12.60;90.70;;;;;;5057041;28;20024;-79
2024/02/23 01:33:27;;;;;;;1.27;0.38;;;12.60;90.80;;;;;;5056836;28;20031;-79
2024/02/23 01:35:52;;;;;;;1.60;0.50;;;12.60;90.80;;;;;;5057301;28;20401;-79
2024/02/23 01:38:22;;;;;;;1.88;0.40;;;12.60;90.80;;;;;;5074846;28;20036;-79
2024/02/23 01:40:47;;;;;;;0.47;0.25;;;12.60;90.80;;;;;;5074562;28;20044;-79
2024/02/23 01:43:13;;;;;;;1.67;0.40;;;12.60;90.80;;;;;;5056948;28;20098;-79
2024/02/23 01:45:38;;;;;;;1.65;0.30;;;12.60;90.80;;;;;;5056964;28;20017;-79
2024/02/23 01:48:05;;;;;;;0.45;0.40;;;12.60;90.80;;;;;;5056965;28;20397;-80
2024/02/23 01:50:31;;;;;;;1.02;0.32;;;12.60;90.80;;;;;;5056965;28;20021;-79
2024/02/23 01:53:00;;;;;;;1.52;0.50;;;12.60;90.80;;;;;;5074520;28;20027;-79
2024/02/23 01:55:26;;;;;;;0.95;0.38;;;12.60;90.80;;;;;;5056943;28;20465;-79
2024/02/23 01:57:53;;;;;;;0.30;0.30;;;12.60;90.80;;;;;;5074573;28;20104;-80
2024/02/23 02:00:19;;;;;;;0.25;0.25;;;12.60;90.80;;;;;;5074755;28;20040;-80
2024/02/23 02:02:45;;;;;;;0.40;0.40;;;12.60;90.80;;;;;;5074447;28;20036;-79
2024/02/23 02:05:10;;;;;;;0.55;0.40;;;12.60;90.80;;;;;;5056976;28;20056;-79
2024/02/23 02:07:37;;;;;;;1.70;0.65;;;12.60;90.80;;;;;;5074425;28;20060;-80
2024/02/23 02:10:05;;;;;;;1.50;0.50;;;12.60;90.80;;;;;;5074640;28;20538;-79
2024/02/23 02:12:30;;;;;;;0.40;0.30;;;12.60;90.80;;;;;;5056376;28;20415;-79
2024/02/23 02:14:56;;;;;;;1.08;0.30;;;12.60;90.80;;;;;;5074335;28;20086;-79
2024/02/23 02:17:21;;;;;;;0.45;0.30;;;12.60;90.80;;;;;;5056418;28;20021;-80
2024/02/23 02:19:50;;;;;;;0.90;0.40;;;12.60;90.80;;;;;;5056394;28;20032;-79
2024/02/23 02:22:15;;;;;;;1.00;0.50;;;12.60;90.70;;;;;;5055926;28;20040;-79
2024/02/23 02:24:43;;;;;;;1.08;0.30;;;12.60;90.80;;;;;;5056179;28;20021;-78
2024/02/23 02:27:09;;;;;;;0.50;0.38;;;12.60;90.80;;;;;;5074319;28;20023;-80
2024/02/23 02:29:35;;;;;;;0.40;0.30;;;12.60;90.80;;;;;;5074061;28;20115;-79
2024/02/23 02:32:01;;;;;;;0.30;0.25;;;12.60;90.80;;;;;;5055892;28;20111;-79
2024/02/23 02:34:26;;;;;;;2.30;0.50;;;12.60;90.80;;;;;;5055855;28;20071;-79
2024/02/23 02:36:52;;;;;;;0.95;0.30;;;12.60;90.80;;;;;;5055375;28;20036;-79
2024/02/23 02:39:17;;;;;;;0.63;0.32;;;12.60;90.80;;;;;;5055282;28;20028;-79
2024/02/23 02:41:43;;;;;;;0.90;0.40;;;12.60;90.80;;;;;;5055220;28;20025;-79
2024/02/23 02:44:09;;;;;;;0.60;0.40;;;12.60;90.80;;;;;;5073569;28;20016;-79
2024/02/23 02:46:35;;;;;;;0.98;0.40;;;12.60;90.70;;;;;;5073496;28;20066;-79
2024/02/23 02:49:00;;;;;;;0.82;0.50;;;12.60;90.60;;;;;;5055738;28;20024;-79
2024/02/23 02:51:26;;;;;;;0.50;0.43;;;12.60;90.50;;;;;;5073656;28;20702;-80
2024/02/23 02:53:51;;;;;;;1.00;0.35;;;12.60;90.40;;;;;;5055508;28;20028;-79
2024/02/23 02:56:17;;;;;;;0.63;0.30;;;12.60;90.40;;;;;;5055646;28;20032;-78
2024/02/23 02:58:42;;;;;;;0.93;0.40;;;12.60;90.40;;;;;;5055739;28;20040;-79
2024/02/23 03:01:08;;;;;;;0.52;0.40;;;12.50;90.40;;;;;;5055644;28;20514;-79
2024/02/23 03:03:34;;;;;;;0.30;0.30;;;12.60;90.50;;;;;;5055602;28;20067;-78
2024/02/23 03:05:59;;;;;;;0.70;0.30;;;12.60;90.60;;;;;;5055420;28;20020;-80
2024/02/23 03:08:26;;;;;;;0.35;0.35;;;12.50;90.60;;;;;;5073471;28;20032;-80
2024/02/23 03:10:51;;;;;;;1.15;0.40;;;12.60;90.70;;;;;;5073280;28;20017;-80
2024/02/23 03:13:17;;;;;;;0.75;0.45;;;12.50;90.60;;;;;;5055347;28;20482;-79
2024/02/23 03:15:42;;;;;;;0.82;0.43;;;12.60;90.50;;;;;;5073140;28;20029;-78
2024/02/23 03:18:09;;;;;;;0.52;0.40;;;12.50;90.40;;;;;;5072978;28;20055;-79
2024/02/23 03:20:35;;;;;;;2.08;0.52;;;12.50;90.40;;;;;;5055034;28;20456;-79
2024/02/23 03:23:03;;;;;;;0.88;0.47;;;12.60;90.30;;;;;;5073161;28;20067;-79
2024/02/23 03:25:29;;;;;;;1.70;0.40;;;12.50;90.30;;;;;;5055204;28;20074;-79
2024/02/23 03:27:54;;;;;;;2.08;0.60;;;12.50;90.30;;;;;;5054829;28;20028;-81
2024/02/23 03:30:20;;;;;;;0.82;0.50;;;12.50;90.20;;;;;;5055253;28;20020;-80
2024/02/23 03:32:46;;;;;;;0.60;0.50;;;12.60;90.50;;;;;;5054831;28;20020;-80
2024/02/23 03:35:12;;;;;;;0.35;0.25;;;12.60;90.40;;;;;;5054945;28;20517;-80
2024/02/23 03:37:38;;;;;;;0.40;0.30;;;12.50;90.50;;;;;;5072715;28;20067;-80
2024/02/23 03:40:05;;;;;;;0.40;0.40;;;12.50;90.50;;;;;;5072855;28;20073;-80
2024/02/23 03:42:31;;;;;;;0.82;0.40;;;12.50;90.50;;;;;;5072312;28;20500;-80
2024/02/23 03:44:56;;;;;;;0.77;0.65;;;12.50;90.50;;;;;;5054596;28;20062;-79
2024/02/23 03:47:21;;;;;;;1.33;0.50;;;12.50;90.50;;;;;;5054573;28;20021;-80
2024/02/23 03:49:47;;;;;;;1.05;0.50;;;12.50;90.30;;;;;;5053899;28;20066;-79
2024/02/23 03:52:13;;;;;;;1.60;0.60;;;12.50;90.50;;;;;;5054135;28;20120;-78
2024/02/23 03:54:38;;;;;;;0.40;0.40;;;12.50;90.50;;;;;;5054226;28;20077;-79
2024/02/23 03:57:04;;;;;;;1.08;0.50;;;12.50;90.50;;;;;;5054169;28;20056;-80
2024/02/23 03:59:29;;;;;;;0.40;0.40;;;12.50;90.50;;;;;;5068583;28;20036;-79
2024/02/23 04:01:56;;;;;;;1.27;0.50;;;12.50;90.50;;;;;;5072005;28;20428;-79
2024/02/23 04:04:21;;;;;;;0.50;0.50;;;12.50;90.40;;;;;;5064042;28;20458;-78
2024/02/23 04:06:47;;;;;;;1.38;0.50;;;12.50;90.40;;;;;;5034532;28;20074;-79
2024/02/23 04:09:13;;;;;;;1.50;0.60;;;12.50;90.50;;;;;;5052259;28;20021;-79
2024/02/23 04:11:38;;;;;;;1.13;0.50;;;12.50;90.40;;;;;;5034572;28;20024;-79
2024/02/23 04:14:05;;;;;;;1.00;0.50;;;12.50;90.50;;;;;;5052513;28;20120;-79
2024/02/23 04:16:30;;;;;;;0.73;0.50;;;12.60;90.30;;;;;;5052202;28;20025;-78
2024/02/23 04:18:56;;;;;;;1.23;0.43;;;12.50;90.20;;;;;;5034312;28;20124;-79
2024/02/23 04:21:21;;;;;;;1.08;0.50;;;12.50;90.40;;;;;;5034432;28;20025;-79
2024/02/23 04:23:47;;;;;;;0.60;0.30;;;12.50;90.30;;;;;;5052106;28;20644;-79
2024/02/23 04:26:13;;;;;;;0.80;0.40;;;12.50;90.20;;;;;;5034553;28;20095;-79
2024/02/23 04:28:42;;;;;;;0.50;0.47;;;12.50;90.30;;;;;;5034383;28;20029;-79
2024/02/23 04:31:10;;;;;;;1.10;0.52;;;12.50;90.20;;;;;;5034454;28;20036;-79
2024/02/23 04:33:36;;;;;;;0.90;0.47;;;12.50;90.30;;;;;;5034098;28;20036;-79
2024/02/23 04:36:03;;;;;;;0.68;0.50;;;12.50;90.20;;;;;;5052080;28;20096;-79
2024/02/23 04:38:29;;;;;;;0.57;0.50;;;12.50;90.20;;;;;;5033996;28;20048;-78
2024/02/23 04:40:56;;;;;;;0.68;0.40;;;12.50;90.30;;;;;;5051709;28;20025;-79
2024/02/23 04:43:22;;;;;;;0.95;0.50;;;12.60;90.30;;;;;;5051809;28;20025;-79
2024/02/23 04:45:48;;;;;;;0.82;0.50;;;12.50;90.20;;;;;;5034096;28;20033;-78
2024/02/23 04:48:14;;;;;;;0.88;0.50;;;12.50;90.30;;;;;;5034132;28;20172;-79
2024/02/23 04:50:39;;;;;;;0.45;0.45;;;12.50;90.30;;;;;;5033985;28;20028;-79
2024/02/23 04:53:04;;;;;;;1.05;0.57;;;12.50;90.30;;;;;;5034066;28;20025;-79
2024/02/23 04:55:30;;;;;;;0.40;0.35;;;12.50;90.30;;;;;;5051983;28;20466;-79
2024/02/23 04:57:56;;;;;;;1.67;0.60;;;12.50;90.30;;;;;;5033976;28;20080;-79
2024/02/23 05:00:21;;;;;;;1.40;0.63;;;12.50;90.30;;;;;;5034641;28;20020;-79
2024/02/23 05:02:47;;;;;;;0.85;0.43;;;12.50;90.30;;;;;;5037435;28;20687;-79
2024/02/23 05:05:12;;;;;;;0.60;0.50;;;12.50;90.30;;;;;;5037912;28;20017;-79
2024/02/23 05:07:38;;;;;;;0.60;0.43;;;12.50;90.20;;;;;;5037686;28;20398;-79
2024/02/23 05:10:04;;;;;;;1.60;0.40;;;12.50;90.20;;;;;;5037670;28;20021;-79
2024/02/23 05:12:29;;;;;;;0.52;0.50;;;12.50;90.20;;;;;;5037286;28;20025;-79
2024/02/23 05:14:55;;;;;;;0.70;0.50;;;12.50;90.20;;;;;;5037513;28;20065;-79
2024/02/23 05:17:20;;;;;;;1.45;0.60;;;12.50;90.10;;;;;;5055210;28;20047;-78
2024/02/23 05:19:46;;;;;;;2.03;0.50;;;12.50;90.10;;;;;;5055669;28;20465;-79
2024/02/23 05:22:12;;;;;;;2.05;0.50;;;12.50;90.00;;;;;;5037192;28;20047;-79
2024/02/23 05:24:37;;;;;;;2.10;0.68;;;12.50;90.20;;;;;;5037605;28;20074;-79
2024/02/23 05:27:03;;;;;;;1.00;0.50;;;12.50;89.60;;;;;;5055381;28;20079;-79
2024/02/23 05:29:29;;;;;;;1.75;0.77;;;12.50;90.00;;;;;;5034848;28;20461;-79
2024/02/23 05:31:54;;;;;;;1.23;0.60;;;12.50;90.10;;;;;;5037981;28;20428;-81
2024/02/23 05:34:20;;;;;;;2.25;0.50;;;12.50;89.80;;;;;;5056206;28;20028;-80
2024/02/23 05:36:46;;;;;;;0.95;0.40;;;12.50;89.80;;;;;;5054322;28;20115;-78
2024/02/23 05:39:15;;;;;;;2.15;0.50;;;12.50;90.00;;;;;;5041372;28;20083;-78
2024/02/23 05:41:41;;;;;;;0.73;0.43;;;12.50;90.00;;;;;;5052953;28;20523;-78
2024/02/23 05:44:07;;;;;;;0.65;0.52;;;12.50;90.00;;;;;;5035171;28;20029;-79
2024/02/23 05:46:34;;;;;;;1.63;0.50;;;12.50;90.00;;;;;;5034156;28;20029;-80
2024/02/23 05:48:59;;;;;;;2.03;0.80;;;12.50;90.00;;;;;;5052570;28;20032;-79
2024/02/23 05:51:25;;;;;;;2.58;0.60;;;12.50;90.00;;;;;;5034156;28;20385;-79
2024/02/23 05:53:50;;;;;;;1.17;0.50;;;12.50;90.20;;;;;;5051951;28;20029;-78
2024/02/23 05:56:18;;;;;;;1.65;0.50;;;12.50;90.00;;;;;;5034333;28;20033;-80
2024/02/23 05:58:44;;;;;;;1.80;0.82;;;12.40;89.80;;;;;;5051988;28;20035;-78
2024/02/23 06:01:09;;;;;;;1.13;0.55;;;12.50;89.80;;;;;;5066300;28;20033;-79
2024/02/23 06:03:35;;;;;;;0.93;0.40;;;12.50;89.50;;;;;;5053650;28;20028;-79
2024/02/23 06:06:00;;;;;;;0.57;0.45;;;12.50;89.70;;;;;;5054585;28;20031;-80
2024/02/23 06:08:26;;;;;;;0.40;0.40;;;12.50;89.70;;;;;;5054546;28;20025;-80
2024/02/23 06:10:51;;;;;;;1.23;0.65;;;12.40;89.70;;;;;;5054612;28;20114;-80
2024/02/23 06:13:17;;;;;;;2.45;0.70;;;12.50;89.50;;;;;;5053719;28;20111;-79
2024/02/23 06:15:43;;;;;;;0.73;0.40;;;12.50;89.70;;;;;;5053517;28;20404;-82
2024/02/23 06:18:08;;;;;;;1.73;0.60;;;12.50;89.30;;;;;;5056384;28;20025;-80
2024/02/23 06:20:34;;;;;;;1.13;0.57;;;12.50;89.10;;;;;;5054816;28;20830;-80
2024/02/23 06:22:59;;;;;;;1.10;0.50;;;12.50;89.40;;;;;;5055196;28;20020;-80
2024/02/23 06:25:25;;;;;;;0.85;0.40;;;12.40;89.60;;;;;;5072515;28;20067;-78
2024/02/23 06:27:51;;;;;;;1.85;0.65;;;12.50;89.40;;;;;;5054070;28;20032;-80
2024/02/23 06:30:16;;;;;;;1.27;0.68;;;12.40;89.40;;;;;;5072388;28;20021;-79
2024/02/23 06:32:42;;;;;;;2.08;0.60;;;12.40;89.50;;;;;;5053948;28;20024;-79
2024/02/23 06:35:08;;;;;;;1.40;0.57;;;12.50;89.70;;;;;;5073851;28;20395;-79
2024/02/23 06:37:34;;;;;;;1.90;0.60;;;12.40;89.60;;;;;;5054835;28;20036;-79
2024/02/23 06:39:59;;;;;;;2.30;0.50;;;12.50;89.60;;;;;;5071713;28;20115;-77
2024/02/23 06:42:25;;;;;;;2.33;0.60;;;12.50;89.50;;;;;;5055850;28;20036;-79
2024/02/23 06:44:51;;;;;;;1.55;0.52;;;12.40;89.60;;;;;;5072435;28;20025;-77
2024/02/23 06:47:16;;;;;;;2.25;0.60;;;12.40;89.50;;;;;;5053967;28;20020;-79
2024/02/23 06:49:43;;;;;;;1.35;0.60;;;12.40;89.40;;;;;;5054240;28;20402;-80
2024/02/23 06:52:09;;;;;;;0.82;0.52;;;12.40;89.50;;;;;;5054380;28;20403;-82
2024/02/23 06:54:34;;;;;;;1.98;0.60;;;12.50;89.70;;;;;;5054272;28;20032;-79
2024/02/23 06:57:00;;;;;;;1.52;0.60;;;12.50;89.70;;;;;;5071504;28;20041;-79
2024/02/23 06:59:25;;;;;;;1.50;0.60;;;12.40;89.60;;;;;;5045177;28;20055;-79
2024/02/23 07:01:52;;;;;;;1.63;0.55;;;12.50;89.70;;;;;;5058254;28;20094;-79
2024/02/23 07:04:17;;;;;;;2.20;0.60;;;12.50;89.70;;;;;;5036867;28;20025;-79
2024/02/23 07:06:43;;;;;;;1.38;0.50;;;12.50;89.60;;;;;;5050488;28;20032;-79
2024/02/23 07:09:10;;;;;;;2.15;0.50;;;12.50;89.20;;;;;;5050443;28;20070;-78
2024/02/23 07:11:35;;;;;;;1.55;0.57;;;12.50;89.10;;;;;;5051540;28;20064;-79
2024/02/23 07:14:00;;;;;;;1.23;0.40;;;12.50;89.20;;;;;;5050248;28;20056;-79
2024/02/23 07:16:26;;;;;;;1.20;0.43;;;12.50;89.30;;;;;;5050848;28;20036;-79
2024/02/23 07:18:51;;;;;;;1.58;0.50;;;12.50;89.30;;;;;;5050567;28;20028;-78
2024/02/23 07:21:18;;;;;;;1.40;0.60;;;12.50;89.80;;;;;;5044506;28;20025;-78
2024/02/23 07:23:43;;;;;;;2.45;0.50;;;12.50;89.40;;;;;;5032070;28;20021;-78
2024/02/23 07:26:09;;;;;;;0.30;0.30;;;12.40;89.30;;;;;;5029634;28;20036;-79
2024/02/23 07:28:34;;;;;;;1.10;0.50;;;12.50;89.30;;;;;;5048023;28;20032;-80
2024/02/23 07:31:00;;;;;;;2.42;0.60;;;12.50;89.30;;;;;;5029996;28;20035;-78
2024/02/23 07:33:25;;;;;;;0.75;0.50;;;12.60;89.50;;;;;;5029970;28;20060;-79
2024/02/23 07:35:51;;;;;;;1.60;0.70;;;12.60;89.40;;;;;;5029987;28;20112;-78
2024/02/23 07:38:17;;;;;;;1.20;0.50;;;12.60;89.10;;;;;;5029825;28;20049;-78
2024/02/23 07:40:44;;;;;;;1.98;0.50;;;12.70;89.00;;;;;;5031396;28;20736;-78
2024/02/23 07:43:11;;;;;;;1.45;0.52;;;12.80;88.90;;;;;;5030172;28;20025;-80
2024/02/23 07:45:37;;;;;;;0.80;0.50;;;12.80;88.50;;;;;;5046242;28;20268;-77
2024/02/23 07:48:03;;;;;;;1.33;0.50;;;12.90;88.00;;;;;;5028571;28;20029;-77
2024/02/23 07:50:28;;;;;;;1.95;0.65;;;12.90;88.30;;;;;;5045722;28;20360;-78
2024/02/23 07:52:54;;;;;;;1.63;0.57;;;12.90;88.10;;;;;;5026872;28;20260;-78
2024/02/23 07:55:19;;;;;;;1.05;0.50;;;12.90;88.10;;;;;;5027456;28;20412;-78
2024/02/23 07:58:10;;;;;;;2.22;0.60;;;13.00;87.90;;;;;;5154516;22;20065;-80
2024/02/23 08:01:13;;;;;;;1.40;0.55;;;13.10;87.80;;;;;;5027177;28;20041;-79
2024/02/23 08:03:42;;;;;;;1.10;0.40;;;13.00;87.70;;;;;;5024776;28;20068;-78
2024/02/23 08:06:12;;;;;;;1.10;0.47;;;13.10;87.50;;;;;;5025924;28;20029;-78
2024/02/23 08:08:40;;;;;;;1.60;0.50;;;13.20;87.50;;;;;;5026217;28;20064;-78
2024/02/23 08:11:06;;;;;;;1.35;0.40;;;13.30;87.60;;;;;;5027500;28;20478;-78
2024/02/23 08:13:39;;;;;;;1.50;0.50;;;13.20;87.50;;;;;;5021882;28;20029;-78
2024/02/23 08:16:07;;;;;;;2.30;0.60;;;13.30;87.40;;;;;;5026296;28;20028;-79
2024/02/23 08:18:36;;;;;;;2.88;0.70;;;13.30;87.40;;;;;;5026123;28;20025;-79
2024/02/23 08:21:02;;;;;;;1.15;0.52;;;13.30;87.30;;;;;;5024738;28;20485;-78
2024/02/23 08:23:29;;;;;;;1.95;0.65;;;13.40;87.40;;;;;;5023667;28;20037;-83
2024/02/23 08:25:56;;;;;;;0.93;0.40;;;13.40;87.30;;;;;;5025131;28;20030;-80
2024/02/23 08:28:22;;;;;;;0.98;0.50;;;13.40;87.20;;;;;;5027242;28;20026;-78
2024/02/23 08:30:48;;;;;;;1.27;0.47;;;13.50;87.10;;;;;;5024391;28;20022;-78
2024/02/23 08:33:13;;;;;;;1.42;0.50;;;13.50;87.00;;;;;;5025689;28;20029;-80
2024/02/23 08:35:39;;;;;;;1.40;0.43;;;13.50;86.90;;;;;;5028035;28;20076;-78
2024/02/23 08:38:08;;;;;;;1.55;0.40;;;13.50;86.80;;;;;;5040914;22;20041;-79
2024/02/23 08:40:49;;;;;;;1.50;0.50;;;13.60;86.60;;;;;;5051281;28;20049;-79
2024/02/23 08:43:55;;;;;;;1.88;0.40;;;13.70;86.60;;;;;;5033022;28;20072;-79
2024/02/23 08:50:01;;;;;;;1.40;0.40;;;13.70;86.30;;;;;;5071021;28;20032;-78
2024/02/23 08:52:44;;;;;;;2.00;0.68;;;13.70;86.20;;;;;;5052974;28;20028;-78
2024/02/23 08:56:05;;;;;;;1.70;0.50;;;13.80;86.00;;;;;;5053000;28;20452;-80
2024/02/23 08:58:33;;;;;;;2.67;0.60;;;13.70;86.00;;;;;;5070606;28;20092;-79
2024/02/23 09:01:04;;;;;;;1.88;0.60;;;13.60;86.10;;;;;;5051059;28;20032;-78
2024/02/23 09:03:35;;;;;;;1.30;0.55;;;13.60;86.50;;;;;;5050723;28;20024;-78
2024/02/23 09:06:00;;;;;;;1.13;0.45;;;13.40;86.60;;;;;;5052467;28;20366;-78
2024/02/23 09:08:26;;;;;;;2.40;0.50;;;13.50;86.80;;;;;;5051723;28;20028;-77
2024/02/23 09:10:51;;;;;;;1.20;0.40;;;13.40;86.60;;;;;;5051369;28;20481;-78
2024/02/23 09:13:17;;;;;;;1.45;0.43;;;13.40;86.80;;;;;;5052182;28;20043;-78
2024/02/23 09:15:42;;;;;;;1.88;0.50;;;13.30;86.70;;;;;;5070074;28;20548;-78
2024/02/23 09:18:08;;;;;;;3.60;0.82;;;13.30;86.20;;;;;;5052287;28;20017;-78
2024/02/23 09:20:33;;;;;;;1.40;0.52;;;13.30;86.50;;;;;;5069435;28;20025;-78
2024/02/23 09:22:59;;;;;;;1.23;0.38;;;13.20;86.80;;;;;;5051455;28;20401;-78
2024/02/23 09:25:24;;;;;;;1.15;0.50;;;13.20;87.30;;;;;;5053047;28;20050;-78
2024/02/23 09:27:50;;;;;;;1.88;0.60;;;13.20;87.60;;;;;;5052407;28;20489;-78
2024/02/23 09:30:15;;;;;;;1.20;0.50;;;13.10;87.70;;;;;;5051092;28;20488;-78
2024/02/23 09:32:41;;;;;;;2.42;0.65;;;13.10;87.70;;;;;;5051407;28;20028;-79
2024/02/23 09:35:07;;;;;;;1.83;0.60;;;13.10;87.50;;;;;;5051568;28;20028;-79
2024/02/23 09:37:33;;;;;;;0.73;0.40;;;13.10;87.90;;;;;;5050855;28;20040;-77
2024/02/23 09:39:58;;;;;;;0.80;0.30;;;13.10;87.70;;;;;;5050781;28;20020;-78
2024/02/23 09:42:26;;;;;;;2.53;0.50;;;13.10;87.80;;;;;;5051537;28;20190;-78
2024/02/23 09:44:59;;;;;;;0.88;0.40;;;13.10;87.80;;;;;;5069551;28;20024;-78
2024/02/23 09:47:28;;;;;;;1.05;0.40;;;13.10;88.30;;;;;;5067852;28;20129;-78
2024/02/23 09:49:55;;;;;;;1.00;0.45;;;13.00;88.00;;;;;;5070097;28;20266;-77
2024/02/23 09:52:22;;;;;;;1.45;0.50;;;13.00;88.10;;;;;;5052509;28;20052;-78
2024/02/23 09:54:47;;;;;;;2.50;0.70;;;13.00;88.20;;;;;;5070827;28;20020;-78
2024/02/23 09:57:15;;;;;;;0.68;0.30;;;13.10;88.00;;;;;;5051448;28;20397;-78
2024/02/23 09:59:41;;;;;;;1.23;0.30;;;13.00;87.50;;;;;;5069483;28;20044;-77
2024/02/23 10:02:12;;;;;;;1.33;0.43;;;13.00;87.70;;;;;;5052432;28;20451;-79
2024/02/23 10:04:39;;;;;;;1.02;0.47;;;13.00;87.10;;;;;;5051434;28;20030;-79
2024/02/23 10:07:05;;;;;;;1.50;0.40;;;13.00;87.40;;;;;;5051859;28;20519;-79
2024/02/23 10:09:31;;;;;;;1.25;0.50;;;13.00;87.40;;;;;;5068779;28;20116;-78
2024/02/23 10:11:57;;;;;;;0.60;0.40;;;13.00;87.40;;;;;;5051261;28;20123;-79
2024/02/23 10:14:22;;;;;;;2.20;0.50;;;13.00;87.50;;;;;;5051548;28;20328;-78
2024/02/23 10:16:53;;;;;;;1.60;0.50;;;13.00;87.30;;;;;;5050773;28;20447;-79
2024/02/23 10:19:19;;;;;;;2.83;0.70;;;13.00;87.40;;;;;;5050450;28;20459;-80
2024/02/23 10:21:45;;;;;;;6.78;1.45;;;13.00;87.50;;;;;;5050024;28;20408;-80
2024/02/23 10:24:10;;;;;;;11.18;1.27;;;12.90;87.90;;;;;;5051397;28;20025;-78
2024/02/23 10:29:29;;;;;;;9.85;1.23;;;12.90;87.40;;;;;;5047837;28;20048;-80
2024/02/23 10:32:05;;;;;;;6.97;1.30;;;12.90;87.20;;;;;;5048740;28;20108;-79
2024/02/23 10:35:04;;;;;;;7.07;1.00;;;12.90;86.80;;;;;;5047366;28;20029;-78
2024/02/23 10:37:55;;;;;;;8.85;1.33;;;12.90;86.60;;;;;;5028418;28;20077;-78
2024/02/23 10:40:47;;;;;;;5.68;1.05;;;12.80;87.00;;;;;;5027508;28;20112;-79
2024/02/23 10:43:29;;;;;;;11.68;1.20;;;12.90;86.70;;;;;;5018776;28;20103;-79
2024/02/23 10:46:12;;;;;;;7.03;1.42;;;12.90;86.00;;;;;;5026269;28;20037;-78
2024/02/23 10:49:04;;;;;;;4.03;0.70;;;12.90;86.50;;;;;;5028939;28;20025;-78
2024/02/23 10:52:00;;;;;;;4.90;0.95;;;12.80;86.60;;;;;;5028975;28;20026;-79
2024/02/23 10:54:45;;;;;;;3.13;0.77;;;12.90;87.10;;;;;;5020302;28;20941;-78
2024/02/23 10:57:21;;;;;;;6.60;1.27;;;12.90;87.00;;;;;;5026444;28;20076;-79
2024/02/23 11:00:00;;;;;;;;;;;;;;;;;;;;;
2024/02/23 11:02:31;;;;;;;4.07;0.70;;;12.90;86.10;;;;;;5027468;28;20390;-78
2024/02/23 11:05:12;;;;;;;;;;;;;;;;;;;;;
2024/02/23 11:08:10;;;;;;;;;;;;;;;;;;;;;
2024/02/23 11:11:19;;;;;;;4.75;0.90;;;13.00;86.40;;;;;;5030770;28;20044;-80
2024/02/23 11:13:47;;;;;;;4.60;0.63;;;12.70;86.70;;;;;;5018999;28;20025;-78
2024/02/23 11:16:28;;;;;;;4.45;0.88;;;12.90;86.10;;;;;;5028153;28;20105;-78
2024/02/23 11:19:48;;;;;;;5.35;0.90;;;12.90;86.50;;;;;;5006478;28;20568;-78
2024/02/23 11:22:46;;;;;;;5.55;0.75;;;12.90;86.30;;;;;;4963911;28;20534;-78
2024/02/23 11:25:21;;;;;;;5.80;1.13;;;12.90;86.70;;;;;;4983369;28;20033;-78
2024/02/23 11:27:49;;;;;;;5.78;0.90;;;12.90;86.70;;;;;;5014619;28;20124;-77
2024/02/23 11:30:52;;;;;;;2.47;0.63;;;12.80;86.60;;;;;;5022787;28;20509;-77
2024/02/23 11:33:55;;;;;;;3.35;0.60;;;12.70;86.20;;;;;;5023901;28;20494;-78
2024/02/23 11:36:41;;;;;;;5.78;1.00;;;12.80;86.30;;;;;;5025805;28;20056;-78
2024/02/23 11:42:41;;;;;;;9.65;1.20;;;12.80;86.40;;;;;;5012049;28;20034;-78
2024/02/23 11:45:38;;;;;;;9.05;1.05;;;12.80;85.40;;;;;;5023015;28;20041;-78
2024/02/23 11:48:30;;;;;;;8.95;1.15;;;12.80;85.50;;;;;;5024332;28;20041;-78
2024/02/23 11:51:29;;;;;;;4.50;0.90;;;12.80;85.30;;;;;;5025597;28;20033;-77
2024/02/23 11:54:18;;;;;;;8.10;1.60;;;13.30;85.80;;;;;;5024312;28;20397;-77
2024/02/23 11:57:09;;;;;;;7.10;1.02;;;12.80;86.20;;;;;;5024340;28;20033;-78
2024/02/23 11:59:55;;;;;;;6.47;1.00;;;12.80;86.30;;;;;;5024518;28;20029;-78
2024/02/23 12:02:37;;;;;;;7.43;0.98;;;12.80;85.90;;;;;;5024328;28;20021;-78
2024/02/23 12:05:28;;;;;;;6.32;1.27;;;12.80;86.10;;;;;;5008020;28;20539;-77
2024/02/23 12:07:54;;;;;;;7.97;1.45;;;12.70;86.40;;;;;;5023474;28;20468;-77
2024/02/23 12:10:26;;;;;;;5.85;0.90;;;12.90;86.70;;;;;;5028324;28;20385;-78
2024/02/23 12:15:47;;;;;;;8.15;1.38;;;12.90;86.80;;;;;;5011408;28;20041;-78
2024/02/23 12:18:14;;;;;;;10.13;1.00;;;12.90;86.60;;;;;;5006994;28;20502;-77
2024/02/23 12:20:40;;;;;;;6.40;1.08;;;12.80;86.70;;;;;;5007552;28;20033;-77
2024/02/23 12:23:07;;;;;;;5.18;1.20;;;12.80;86.50;;;;;;5007772;28;20041;-78
2024/02/23 12:25:33;;;;;;;4.65;1.10;;;12.80;86.70;;;;;;5008107;28;20031;-77
2024/02/23 12:28:00;;;;;;;5.63;0.90;;;12.80;85.90;;;;;;5044950;28;20040;-77
2024/02/23 12:30:26;;;;;;;2.85;0.80;;;12.80;86.30;;;;;;5045851;28;20021;-78
2024/02/23 12:33:02;;;;;;;4.38;0.90;;;12.80;86.30;;;;;;5027800;28;20029;-78
2024/02/23 12:35:27;;;;;;;5.82;1.00;;;12.80;87.20;;;;;;5028869;28;20033;-78
2024/02/23 12:37:53;;;;;;;4.75;1.00;;;12.80;87.20;;;;;;5028423;28;20075;-78
2024/02/23 12:40:19;;;;;;;4.40;0.77;;;12.80;86.40;;;;;;5029918;28;20029;-78
2024/02/23 12:42:45;;;;;;;2.28;0.70;;;12.80;86.80;;;;;;5028838;28;20763;-78
2024/02/23 12:45:11;;;;;;;4.50;0.82;;;12.80;86.80;;;;;;5047656;28;20021;-81
2024/02/23 12:47:36;;;;;;;4.78;0.93;;;12.90;86.80;;;;;;5029008;28;20036;-77
2024/02/23 12:50:02;;;;;;;4.63;0.90;;;12.90;87.60;;;;;;5030315;28;20835;-78
2024/02/23 12:52:27;;;;;;;4.63;0.90;;;12.90;87.50;;;;;;5047110;28;20710;-77
2024/02/23 12:54:53;;;;;;;6.13;1.20;;;12.90;87.30;;;;;;5029728;28;20060;-78
2024/02/23 12:57:19;;;;;;;2.75;0.63;;;12.90;87.20;;;;;;5030531;28;20048;-79
2024/02/23 12:59:44;;;;;;;3.88;0.88;;;12.90;87.30;;;;;;5029825;28;20033;-77
2024/02/23 13:02:12;;;;;;;4.65;0.90;;;12.90;87.40;;;;;;5029212;28;20128;-79
2024/02/23 13:04:38;;;;;;;3.20;0.80;;;12.90;87.40;;;;;;5047635;28;20017;-79
2024/02/23 13:07:03;;;;;;;4.05;0.80;;;12.90;87.50;;;;;;5047967;28;20114;-79
2024/02/23 13:09:28;;;;;;;3.15;0.70;;;12.90;87.70;;;;;;5027683;28;20112;-79
2024/02/23 13:11:54;;;;;;;2.90;0.68;;;12.90;87.50;;;;;;5027120;28;20028;-78